sensor_id;sensor_type;location;lat;lon;timestamp;P1;durP1;ratioP1;P2;durP2;ratioP2
1358;SDS011;673;48.098;14.422;2023-11-22T06:09:34;2.10;;;1.50;;
1358;SDS011;673;48.098;14.422;2023-11-22T06:12:02;2.30;;;1.33;;
1358;SDS011;673;48.098;14.422;2023-11-22T06:14:30;2.10;;;1.30;;
1358;SDS011;673;48.098;14.422;2023-11-22T06:16:57;1.47;;;1.37;;
1358;SDS011;673;48.098;14.422;2023-11-22T06:19:24;1.37;;;0.90;;
1358;SDS011;673;48.098;14.422;2023-11-22T06:21:51;1.10;;;0.70;;
1358;SDS011;673;48.098;14.422;2023-11-22T06:24:18;3.03;;;1.40;;
1358;SDS011;673;48.098;14.422;2023-11-22T06:26:46;1.13;;;0.90;;
1358;SDS011;673;48.098;14.422;2023-11-22T06:29:13;1.20;;;1.07;;
1358;SDS011;673;48.098;14.422;2023-11-22T06:31:41;1.37;;;1.27;;
1358;SDS011;673;48.098;14.422;2023-11-22T06:34:08;1.13;;;0.80;;
1358;SDS011;673;48.098;14.422;2023-11-22T06:36:35;3.90;;;1.30;;
1358;SDS011;673;48.098;14.422;2023-11-22T06:39:03;1.30;;;1.20;;
1358;SDS011;673;48.098;14.422;2023-11-22T06:41:31;1.10;;;1.00;;
1358;SDS011;673;48.098;14.422;2023-11-22T06:43:59;1.67;;;1.57;;
1358;SDS011;673;48.098;14.422;2023-11-22T06:46:27;1.53;;;1.00;;
1358;SDS011;673;48.098;14.422;2023-11-22T06:48:54;1.20;;;1.03;;
1358;SDS011;673;48.098;14.422;2023-11-22T06:51:22;1.33;;;0.90;;
1358;SDS011;673;48.098;14.422;2023-11-22T06:53:49;1.07;;;1.00;;
1358;SDS011;673;48.098;14.422;2023-11-22T06:56:17;1.77;;;1.23;;
1358;SDS011;673;48.098;14.422;2023-11-22T06:58:44;1.57;;;1.03;;
1358;SDS011;673;48.098;14.422;2023-11-22T07:01:12;1.30;;;1.03;;
1358;SDS011;673;48.098;14.422;2023-11-22T07:03:40;1.27;;;1.17;;
1358;SDS011;673;48.098;14.422;2023-11-22T07:06:07;1.27;;;0.80;;
1358;SDS011;673;48.098;14.422;2023-11-22T07:08:34;1.93;;;1.10;;
1358;SDS011;673;48.098;14.422;2023-11-22T07:11:01;2.70;;;2.27;;
1358;SDS011;673;48.098;14.422;2023-11-22T07:13:31;2.33;;;1.27;;
1358;SDS011;673;48.098;14.422;2023-11-22T07:15:58;1.53;;;1.13;;
1358;SDS011;673;48.098;14.422;2023-11-22T07:18:27;1.47;;;1.10;;
1358;SDS011;673;48.098;14.422;2023-11-22T07:20:54;1.70;;;1.20;;
1358;SDS011;673;48.098;14.422;2023-11-22T07:23:21;1.73;;;1.63;;
1358;SDS011;673;48.098;14.422;2023-11-22T07:25:52;1.47;;;1.20;;
1358;SDS011;673;48.098;14.422;2023-11-22T07:28:19;1.40;;;1.30;;
1358;SDS011;673;48.098;14.422;2023-11-22T07:30:46;1.70;;;1.60;;
1358;SDS011;673;48.098;14.422;2023-11-22T07:33:14;1.87;;;1.60;;
1358;SDS011;673;48.098;14.422;2023-11-22T07:35:42;2.90;;;1.87;;
1358;SDS011;673;48.098;14.422;2023-11-22T07:38:11;2.10;;;1.80;;
1358;SDS011;673;48.098;14.422;2023-11-22T07:40:39;1.60;;;1.50;;
1358;SDS011;673;48.098;14.422;2023-11-22T07:43:06;1.60;;;1.50;;
1358;SDS011;673;48.098;14.422;2023-11-22T07:45:34;2.53;;;2.13;;
1358;SDS011;673;48.098;14.422;2023-11-22T07:48:03;2.10;;;1.80;;
1358;SDS011;673;48.098;14.422;2023-11-22T07:50:30;15.07;;;2.07;;
1358;SDS011;673;48.098;14.422;2023-11-22T07:52:58;1.80;;;1.67;;
1358;SDS011;673;48.098;14.422;2023-11-22T07:55:28;3.13;;;2.53;;
1358;SDS011;673;48.098;14.422;2023-11-22T07:57:55;2.27;;;1.27;;
1358;SDS011;673;48.098;14.422;2023-11-22T08:00:22;2.00;;;1.50;;
1358;SDS011;673;48.098;14.422;2023-11-22T08:02:49;1.90;;;1.80;;
1358;SDS011;673;48.098;14.422;2023-11-22T08:05:19;3.20;;;2.20;;
1358;SDS011;673;48.098;14.422;2023-11-22T08:07:48;1.93;;;1.20;;
1358;SDS011;673;48.098;14.422;2023-11-22T08:10:17;2.40;;;1.30;;
1358;SDS011;673;48.098;14.422;2023-11-22T08:12:45;1.20;;;1.07;;
1358;SDS011;673;48.098;14.422;2023-11-22T08:15:15;1.77;;;1.57;;
1358;SDS011;673;48.098;14.422;2023-11-22T08:17:43;1.50;;;1.40;;
1358;SDS011;673;48.098;14.422;2023-11-22T08:20:10;2.27;;;1.80;;
1358;SDS011;673;48.098;14.422;2023-11-22T08:22:38;1.73;;;1.53;;
1358;SDS011;673;48.098;14.422;2023-11-22T08:25:05;2.23;;;1.60;;
1358;SDS011;673;48.098;14.422;2023-11-22T08:27:35;2.00;;;1.77;;
1358;SDS011;673;48.098;14.422;2023-11-22T08:30:02;3.03;;;1.80;;
1358;SDS011;673;48.098;14.422;2023-11-22T08:32:30;2.50;;;2.13;;
1358;SDS011;673;48.098;14.422;2023-11-22T08:34:57;1.40;;;1.30;;
1358;SDS011;673;48.098;14.422;2023-11-22T08:37:24;1.33;;;1.23;;
1358;SDS011;673;48.098;14.422;2023-11-22T08:39:51;1.23;;;1.13;;
1358;SDS011;673;48.098;14.422;2023-11-22T08:42:19;1.80;;;1.43;;
1358;SDS011;673;48.098;14.422;2023-11-22T08:44:47;1.23;;;1.13;;
1358;SDS011;673;48.098;14.422;2023-11-22T08:47:14;1.40;;;1.27;;
1358;SDS011;673;48.098;14.422;2023-11-22T08:49:41;1.93;;;1.73;;
1358;SDS011;673;48.098;14.422;2023-11-22T08:52:08;1.37;;;1.27;;
1358;SDS011;673;48.098;14.422;2023-11-22T08:54:35;1.77;;;1.00;;
1358;SDS011;673;48.098;14.422;2023-11-22T08:57:02;1.67;;;1.20;;
1358;SDS011;673;48.098;14.422;2023-11-22T08:59:31;1.70;;;1.57;;
1358;SDS011;673;48.098;14.422;2023-11-22T09:02:04;1.63;;;1.50;;
1358;SDS011;673;48.098;14.422;2023-11-22T09:04:32;1.70;;;1.57;;
1358;SDS011;673;48.098;14.422;2023-11-22T09:07:00;3.13;;;1.30;;
1358;SDS011;673;48.098;14.422;2023-11-22T09:09:27;1.40;;;1.30;;
1358;SDS011;673;48.098;14.422;2023-11-22T09:11:56;2.47;;;1.97;;
1358;SDS011;673;48.098;14.422;2023-11-22T09:14:23;1.30;;;1.07;;
1358;SDS011;673;48.098;14.422;2023-11-22T09:16:51;1.40;;;1.30;;
1358;SDS011;673;48.098;14.422;2023-11-22T09:19:21;2.33;;;1.50;;
1358;SDS011;673;48.098;14.422;2023-11-22T09:21:48;2.53;;;1.50;;
1358;SDS011;673;48.098;14.422;2023-11-22T09:24:16;2.20;;;1.63;;
1358;SDS011;673;48.098;14.422;2023-11-22T09:26:43;2.53;;;1.17;;
1358;SDS011;673;48.098;14.422;2023-11-22T09:29:10;1.73;;;1.23;;
1358;SDS011;673;48.098;14.422;2023-11-22T09:31:38;1.27;;;1.17;;
1358;SDS011;673;48.098;14.422;2023-11-22T09:34:07;2.97;;;2.10;;
1358;SDS011;673;48.098;14.422;2023-11-22T09:36:35;1.70;;;1.00;;
1358;SDS011;673;48.098;14.422;2023-11-22T09:39:03;1.00;;;0.70;;
1358;SDS011;673;48.098;14.422;2023-11-22T09:41:34;1.93;;;1.30;;
1358;SDS011;673;48.098;14.422;2023-11-22T09:44:01;0.80;;;0.70;;
1358;SDS011;673;48.098;14.422;2023-11-22T09:46:29;0.73;;;0.73;;
1358;SDS011;673;48.098;14.422;2023-11-22T09:48:59;0.90;;;0.70;;
1358;SDS011;673;48.098;14.422;2023-11-22T09:51:28;1.13;;;0.93;;
1358;SDS011;673;48.098;14.422;2023-11-22T09:53:59;0.80;;;0.80;;
1358;SDS011;673;48.098;14.422;2023-11-22T09:56:30;1.43;;;1.30;;
1358;SDS011;673;48.098;14.422;2023-11-22T09:58:58;2.30;;;1.50;;
1358;SDS011;673;48.098;14.422;2023-11-22T10:01:26;1.60;;;1.00;;
1358;SDS011;673;48.098;14.422;2023-11-22T10:03:55;2.00;;;1.80;;
1358;SDS011;673;48.098;14.422;2023-11-22T10:06:23;2.30;;;1.47;;
1358;SDS011;673;48.098;14.422;2023-11-22T10:08:51;1.90;;;1.53;;
1358;SDS011;673;48.098;14.422;2023-11-22T10:11:20;1.83;;;1.37;;
1358;SDS011;673;48.098;14.422;2023-11-22T10:13:47;1.27;;;1.17;;
1358;SDS011;673;48.098;14.422;2023-11-22T10:16:16;1.77;;;1.67;;
1358;SDS011;673;48.098;14.422;2023-11-22T10:18:45;1.63;;;1.33;;
1358;SDS011;673;48.098;14.422;2023-11-22T10:21:21;0.80;;;0.80;;
1358;SDS011;673;48.098;14.422;2023-11-22T10:23:49;0.83;;;0.83;;
1358;SDS011;673;48.098;14.422;2023-11-22T10:26:18;1.30;;;1.00;;
1358;SDS011;673;48.098;14.422;2023-11-22T10:28:50;2.17;;;1.27;;
1358;SDS011;673;48.098;14.422;2023-11-22T10:31:17;1.30;;;1.20;;
1358;SDS011;673;48.098;14.422;2023-11-22T10:33:45;1.17;;;1.07;;
1358;SDS011;673;48.098;14.422;2023-11-22T10:36:12;1.10;;;1.00;;
1358;SDS011;673;48.098;14.422;2023-11-22T10:38:40;1.27;;;1.17;;
1358;SDS011;673;48.098;14.422;2023-11-22T10:41:08;2.00;;;1.80;;
1358;SDS011;673;48.098;14.422;2023-11-22T10:43:37;1.80;;;0.83;;
1358;SDS011;673;48.098;14.422;2023-11-22T10:46:04;2.40;;;1.00;;
1358;SDS011;673;48.098;14.422;2023-11-22T10:48:31;0.90;;;0.70;;
1358;SDS011;673;48.098;14.422;2023-11-22T10:51:00;1.53;;;0.70;;
1358;SDS011;673;48.098;14.422;2023-11-22T10:53:31;1.17;;;1.07;;
1358;SDS011;673;48.098;14.422;2023-11-22T10:56:02;0.93;;;0.83;;
1358;SDS011;673;48.098;14.422;2023-11-22T10:58:32;1.23;;;0.97;;
1358;SDS011;673;48.098;14.422;2023-11-22T11:01:01;1.80;;;1.50;;
1358;SDS011;673;48.098;14.422;2023-11-22T11:03:32;1.03;;;0.90;;
1358;SDS011;673;48.098;14.422;2023-11-22T11:06:05;1.43;;;0.93;;
1358;SDS011;673;48.098;14.422;2023-11-22T11:08:38;1.33;;;1.13;;
1358;SDS011;673;48.098;14.422;2023-11-22T11:11:05;1.07;;;0.97;;
1358;SDS011;673;48.098;14.422;2023-11-22T11:13:32;2.00;;;1.30;;
1358;SDS011;673;48.098;14.422;2023-11-22T11:15:59;1.30;;;1.00;;
1358;SDS011;673;48.098;14.422;2023-11-22T11:18:28;1.30;;;1.20;;
1358;SDS011;673;48.098;14.422;2023-11-22T11:20:58;1.47;;;1.20;;
1358;SDS011;673;48.098;14.422;2023-11-22T11:23:26;1.63;;;1.47;;
1358;SDS011;673;48.098;14.422;2023-11-22T11:25:54;1.33;;;1.07;;
1358;SDS011;673;48.098;14.422;2023-11-22T11:28:23;1.10;;;1.00;;
1358;SDS011;673;48.098;14.422;2023-11-22T11:30:51;2.70;;;1.27;;
1358;SDS011;673;48.098;14.422;2023-11-22T11:33:27;1.43;;;1.23;;
1358;SDS011;673;48.098;14.422;2023-11-22T11:36:01;1.63;;;1.00;;
1358;SDS011;673;48.098;14.422;2023-11-22T11:38:30;1.63;;;1.20;;
1358;SDS011;673;48.098;14.422;2023-11-22T11:41:05;1.57;;;1.47;;
1358;SDS011;673;48.098;14.422;2023-11-22T11:43:42;1.33;;;1.23;;
1358;SDS011;673;48.098;14.422;2023-11-22T11:46:10;2.00;;;1.63;;
1358;SDS011;673;48.098;14.422;2023-11-22T11:48:39;3.83;;;2.23;;
1358;SDS011;673;48.098;14.422;2023-11-22T11:51:09;1.73;;;1.63;;
1358;SDS011;673;48.098;14.422;2023-11-22T11:53:39;2.07;;;1.80;;
1358;SDS011;673;48.098;14.422;2023-11-22T11:56:07;1.43;;;1.33;;
1358;SDS011;673;48.098;14.422;2023-11-22T11:58:35;1.40;;;1.00;;
1358;SDS011;673;48.098;14.422;2023-11-22T12:01:03;1.83;;;1.43;;
1358;SDS011;673;48.098;14.422;2023-11-22T12:03:30;1.80;;;1.70;;
1358;SDS011;673;48.098;14.422;2023-11-22T12:05:59;2.03;;;1.10;;
1358;SDS011;673;48.098;14.422;2023-11-22T12:08:26;0.83;;;0.83;;
1358;SDS011;673;48.098;14.422;2023-11-22T12:10:55;3.67;;;2.40;;
1358;SDS011;673;48.098;14.422;2023-11-22T12:13:24;1.77;;;1.00;;
1358;SDS011;673;48.098;14.422;2023-11-22T12:15:51;1.40;;;0.60;;
1358;SDS011;673;48.098;14.422;2023-11-22T12:18:19;1.40;;;1.30;;
1358;SDS011;673;48.098;14.422;2023-11-22T12:20:53;1.43;;;1.20;;
1358;SDS011;673;48.098;14.422;2023-11-22T12:23:23;6.90;;;4.23;;
1358;SDS011;673;48.098;14.422;2023-11-22T12:25:55;4.63;;;2.43;;
1358;SDS011;673;48.098;14.422;2023-11-22T12:28:23;2.77;;;1.33;;
1358;SDS011;673;48.098;14.422;2023-11-22T12:30:52;2.03;;;1.40;;
1358;SDS011;673;48.098;14.422;2023-11-22T12:33:19;2.70;;;1.43;;
1358;SDS011;673;48.098;14.422;2023-11-22T12:35:46;1.20;;;1.10;;
1358;SDS011;673;48.098;14.422;2023-11-22T12:38:14;1.63;;;1.40;;
1358;SDS011;673;48.098;14.422;2023-11-22T12:40:45;3.43;;;1.90;;
1358;SDS011;673;48.098;14.422;2023-11-22T12:43:13;1.87;;;1.30;;
1358;SDS011;673;48.098;14.422;2023-11-22T12:45:40;1.43;;;1.33;;
1358;SDS011;673;48.098;14.422;2023-11-22T12:48:19;2.27;;;1.53;;
1358;SDS011;673;48.098;14.422;2023-11-22T12:50:48;2.90;;;1.70;;
1358;SDS011;673;48.098;14.422;2023-11-22T12:53:15;1.93;;;1.73;;
1358;SDS011;673;48.098;14.422;2023-11-22T12:55:43;2.63;;;1.90;;
1358;SDS011;673;48.098;14.422;2023-11-22T12:58:14;1.77;;;1.47;;
1358;SDS011;673;48.098;14.422;2023-11-22T13:00:41;3.23;;;1.80;;
1358;SDS011;673;48.098;14.422;2023-11-22T13:03:09;2.30;;;1.80;;
1358;SDS011;673;48.098;14.422;2023-11-22T13:05:37;2.03;;;1.50;;
1358;SDS011;673;48.098;14.422;2023-11-22T13:08:04;2.27;;;1.93;;
1358;SDS011;673;48.098;14.422;2023-11-22T13:10:31;2.17;;;1.20;;
1358;SDS011;673;48.098;14.422;2023-11-22T13:13:00;1.73;;;1.43;;
1358;SDS011;673;48.098;14.422;2023-11-22T13:15:27;1.57;;;1.40;;
1358;SDS011;673;48.098;14.422;2023-11-22T13:17:55;2.93;;;2.60;;
1358;SDS011;673;48.098;14.422;2023-11-22T13:20:22;2.73;;;2.10;;
1358;SDS011;673;48.098;14.422;2023-11-22T13:22:51;2.93;;;1.97;;
1358;SDS011;673;48.098;14.422;2023-11-22T13:25:18;3.77;;;1.83;;
1358;SDS011;673;48.098;14.422;2023-11-22T13:27:46;2.97;;;2.37;;
1358;SDS011;673;48.098;14.422;2023-11-22T13:30:15;3.47;;;1.67;;
1358;SDS011;673;48.098;14.422;2023-11-22T13:32:44;1.60;;;1.20;;
1358;SDS011;673;48.098;14.422;2023-11-22T13:35:12;2.60;;;1.70;;
1358;SDS011;673;48.098;14.422;2023-11-22T13:37:42;2.27;;;1.93;;
1358;SDS011;673;48.098;14.422;2023-11-22T13:40:10;3.07;;;1.80;;
1358;SDS011;673;48.098;14.422;2023-11-22T13:42:41;1.67;;;1.57;;
1358;SDS011;673;48.098;14.422;2023-11-22T13:45:09;3.67;;;2.17;;
1358;SDS011;673;48.098;14.422;2023-11-22T13:47:42;2.30;;;1.67;;
1358;SDS011;673;48.098;14.422;2023-11-22T13:50:11;5.13;;;3.00;;
1358;SDS011;673;48.098;14.422;2023-11-22T13:52:40;3.50;;;2.80;;
1358;SDS011;673;48.098;14.422;2023-11-22T13:55:08;2.70;;;2.47;;
1358;SDS011;673;48.098;14.422;2023-11-22T13:57:37;2.47;;;2.20;;
1358;SDS011;673;48.098;14.422;2023-11-22T14:00:05;1.67;;;1.57;;
1358;SDS011;673;48.098;14.422;2023-11-22T14:02:37;2.33;;;2.07;;
1358;SDS011;673;48.098;14.422;2023-11-22T14:05:07;2.97;;;2.67;;
1358;SDS011;673;48.098;14.422;2023-11-22T14:07:37;2.77;;;2.43;;
1358;SDS011;673;48.098;14.422;2023-11-22T14:10:04;2.53;;;2.33;;
1358;SDS011;673;48.098;14.422;2023-11-22T14:12:32;3.77;;;2.20;;
1358;SDS011;673;48.098;14.422;2023-11-22T14:15:00;4.47;;;2.97;;
1358;SDS011;673;48.098;14.422;2023-11-22T14:17:29;3.10;;;2.40;;
1358;SDS011;673;48.098;14.422;2023-11-22T14:19:56;3.70;;;2.87;;
1358;SDS011;673;48.098;14.422;2023-11-22T14:22:25;4.80;;;2.77;;
1358;SDS011;673;48.098;14.422;2023-11-22T14:24:53;2.77;;;2.07;;
1358;SDS011;673;48.098;14.422;2023-11-22T14:27:20;3.27;;;2.97;;
1358;SDS011;673;48.098;14.422;2023-11-22T14:29:47;6.20;;;2.40;;
1358;SDS011;673;48.098;14.422;2023-11-22T14:32:16;2.57;;;2.40;;
1358;SDS011;673;48.098;14.422;2023-11-22T14:34:43;2.43;;;2.23;;
1358;SDS011;673;48.098;14.422;2023-11-22T14:37:10;3.07;;;2.30;;
1358;SDS011;673;48.098;14.422;2023-11-22T14:39:38;2.90;;;2.60;;
1358;SDS011;673;48.098;14.422;2023-11-22T14:42:05;2.00;;;1.70;;
1358;SDS011;673;48.098;14.422;2023-11-22T14:44:33;2.10;;;1.83;;
1358;SDS011;673;48.098;14.422;2023-11-22T14:47:01;3.50;;;2.83;;
1358;SDS011;673;48.098;14.422;2023-11-22T14:49:32;2.63;;;2.07;;
1358;SDS011;673;48.098;14.422;2023-11-22T14:51:59;4.17;;;2.20;;
1358;SDS011;673;48.098;14.422;2023-11-22T14:54:26;3.80;;;3.20;;
1358;SDS011;673;48.098;14.422;2023-11-22T14:56:54;4.30;;;3.03;;
1358;SDS011;673;48.098;14.422;2023-11-22T14:59:27;5.40;;;3.00;;
1358;SDS011;673;48.098;14.422;2023-11-22T15:01:55;6.47;;;4.43;;
1358;SDS011;673;48.098;14.422;2023-11-22T15:04:22;8.60;;;4.50;;
1358;SDS011;673;48.098;14.422;2023-11-22T15:06:50;8.50;;;5.63;;
1358;SDS011;673;48.098;14.422;2023-11-22T15:09:17;8.60;;;5.43;;
1358;SDS011;673;48.098;14.422;2023-11-22T15:11:46;9.07;;;5.20;;
1358;SDS011;673;48.098;14.422;2023-11-22T15:14:15;13.53;;;6.20;;
1358;SDS011;673;48.098;14.422;2023-11-22T15:16:42;11.53;;;5.87;;
1358;SDS011;673;48.098;14.422;2023-11-22T15:19:09;9.77;;;6.50;;
1358;SDS011;673;48.098;14.422;2023-11-22T15:21:36;6.70;;;5.70;;
1358;SDS011;673;48.098;14.422;2023-11-22T15:24:03;2.70;;;2.50;;
1358;SDS011;673;48.098;14.422;2023-11-22T15:26:31;3.80;;;3.40;;
1358;SDS011;673;48.098;14.422;2023-11-22T15:28:59;3.80;;;3.40;;
1358;SDS011;673;48.098;14.422;2023-11-22T15:31:28;5.20;;;4.10;;
1358;SDS011;673;48.098;14.422;2023-11-22T15:33:55;3.03;;;2.13;;
1358;SDS011;673;48.098;14.422;2023-11-22T15:36:22;3.20;;;2.50;;
1358;SDS011;673;48.098;14.422;2023-11-22T15:38:50;4.27;;;2.23;;
1358;SDS011;673;48.098;14.422;2023-11-22T15:41:17;5.13;;;3.00;;
1358;SDS011;673;48.098;14.422;2023-11-22T15:43:45;3.13;;;2.30;;
1358;SDS011;673;48.098;14.422;2023-11-22T15:46:11;6.00;;;3.23;;
1358;SDS011;673;48.098;14.422;2023-11-22T15:48:43;7.90;;;4.53;;
1358;SDS011;673;48.098;14.422;2023-11-22T15:51:10;6.07;;;3.83;;
1358;SDS011;673;48.098;14.422;2023-11-22T15:53:38;7.33;;;5.60;;
1358;SDS011;673;48.098;14.422;2023-11-22T15:56:05;4.60;;;4.20;;
1358;SDS011;673;48.098;14.422;2023-11-22T15:58:33;5.03;;;4.00;;
1358;SDS011;673;48.098;14.422;2023-11-22T16:01:02;7.57;;;5.37;;
1358;SDS011;673;48.098;14.422;2023-11-22T16:03:29;3.87;;;3.20;;
1358;SDS011;673;48.098;14.422;2023-11-22T16:05:59;3.23;;;2.83;;
1358;SDS011;673;48.098;14.422;2023-11-22T16:08:28;3.87;;;2.40;;
1358;SDS011;673;48.098;14.422;2023-11-22T16:10:55;2.77;;;2.43;;
1358;SDS011;673;48.098;14.422;2023-11-22T16:13:22;4.23;;;2.77;;
1358;SDS011;673;48.098;14.422;2023-11-22T16:15:51;2.73;;;2.50;;
1358;SDS011;673;48.098;14.422;2023-11-22T16:18:18;2.77;;;2.50;;
1358;SDS011;673;48.098;14.422;2023-11-22T16:20:50;3.60;;;3.30;;
1358;SDS011;673;48.098;14.422;2023-11-22T16:23:19;3.33;;;2.87;;
1358;SDS011;673;48.098;14.422;2023-11-22T16:25:46;4.40;;;3.13;;
1358;SDS011;673;48.098;14.422;2023-11-22T16:28:13;6.57;;;4.23;;
1358;SDS011;673;48.098;14.422;2023-11-22T16:30:40;6.10;;;5.47;;
1358;SDS011;673;48.098;14.422;2023-11-22T16:33:08;6.40;;;5.00;;
1358;SDS011;673;48.098;14.422;2023-11-22T16:35:35;12.47;;;9.30;;
1358;SDS011;673;48.098;14.422;2023-11-22T16:38:02;6.67;;;6.07;;
1358;SDS011;673;48.098;14.422;2023-11-22T16:40:30;5.70;;;4.73;;
1358;SDS011;673;48.098;14.422;2023-11-22T16:42:57;4.70;;;3.13;;
1358;SDS011;673;48.098;14.422;2023-11-22T16:45:24;5.90;;;3.17;;
1358;SDS011;673;48.098;14.422;2023-11-22T16:47:51;3.47;;;2.70;;
1358;SDS011;673;48.098;14.422;2023-11-22T16:50:19;5.60;;;3.50;;
1358;SDS011;673;48.098;14.422;2023-11-22T16:52:47;2.97;;;2.67;;
1358;SDS011;673;48.098;14.422;2023-11-22T16:55:13;6.33;;;3.40;;
1358;SDS011;673;48.098;14.422;2023-11-22T16:57:43;4.60;;;3.33;;
1358;SDS011;673;48.098;14.422;2023-11-22T17:00:10;4.00;;;2.73;;
1358;SDS011;673;48.098;14.422;2023-11-22T17:02:42;4.80;;;3.73;;
1358;SDS011;673;48.098;14.422;2023-11-22T17:05:09;4.87;;;3.93;;
1358;SDS011;673;48.098;14.422;2023-11-22T17:07:36;6.60;;;3.73;;
1358;SDS011;673;48.098;14.422;2023-11-22T17:10:04;5.70;;;3.60;;
1358;SDS011;673;48.098;14.422;2023-11-22T17:12:31;2.77;;;2.53;;
1358;SDS011;673;48.098;14.422;2023-11-22T17:15:00;2.83;;;2.43;;
1358;SDS011;673;48.098;14.422;2023-11-22T17:17:28;3.03;;;2.83;;
1358;SDS011;673;48.098;14.422;2023-11-22T17:19:55;3.30;;;3.00;;
1358;SDS011;673;48.098;14.422;2023-11-22T17:22:22;4.67;;;3.00;;
1358;SDS011;673;48.098;14.422;2023-11-22T17:24:52;4.10;;;2.80;;
1358;SDS011;673;48.098;14.422;2023-11-22T17:27:19;4.30;;;3.20;;
1358;SDS011;673;48.098;14.422;2023-11-22T17:29:46;3.37;;;2.93;;
1358;SDS011;673;48.098;14.422;2023-11-22T17:32:17;4.30;;;3.53;;
1358;SDS011;673;48.098;14.422;2023-11-22T17:34:44;8.40;;;7.00;;
1358;SDS011;673;48.098;14.422;2023-11-22T17:37:11;17.80;;;16.20;;
1358;SDS011;673;48.098;14.422;2023-11-22T17:39:38;8.30;;;7.33;;
1358;SDS011;673;48.098;14.422;2023-11-22T17:42:06;9.20;;;5.30;;
1358;SDS011;673;48.098;14.422;2023-11-22T17:44:33;11.60;;;5.50;;
1358;SDS011;673;48.098;14.422;2023-11-22T17:47:00;5.33;;;4.60;;
1358;SDS011;673;48.098;14.422;2023-11-22T17:49:35;6.30;;;5.70;;
1358;SDS011;673;48.098;14.422;2023-11-22T17:52:02;5.40;;;3.73;;
1358;SDS011;673;48.098;14.422;2023-11-22T17:54:30;6.77;;;4.20;;
1358;SDS011;673;48.098;14.422;2023-11-22T17:56:57;19.73;;;12.80;;
1358;SDS011;673;48.098;14.422;2023-11-22T17:59:23;15.33;;;9.13;;
1358;SDS011;673;48.098;14.422;2023-11-22T18:01:50;6.20;;;3.93;;
1358;SDS011;673;48.098;14.422;2023-11-22T18:04:17;7.27;;;6.30;;
1358;SDS011;673;48.098;14.422;2023-11-22T18:06:46;4.63;;;4.23;;
1358;SDS011;673;48.098;14.422;2023-11-22T18:09:14;10.07;;;6.70;;
1358;SDS011;673;48.098;14.422;2023-11-22T18:11:41;6.97;;;6.27;;
1358;SDS011;673;48.098;14.422;2023-11-22T18:14:08;7.43;;;5.00;;
1358;SDS011;673;48.098;14.422;2023-11-22T18:16:38;6.20;;;5.53;;
1358;SDS011;673;48.098;14.422;2023-11-22T18:19:07;6.10;;;4.57;;
1358;SDS011;673;48.098;14.422;2023-11-22T18:21:34;5.23;;;4.30;;
1358;SDS011;673;48.098;14.422;2023-11-22T18:24:02;6.30;;;5.27;;
1358;SDS011;673;48.098;14.422;2023-11-22T18:26:30;8.23;;;5.53;;
1358;SDS011;673;48.098;14.422;2023-11-22T18:28:57;4.17;;;3.80;;
1358;SDS011;673;48.098;14.422;2023-11-22T18:31:24;4.77;;;4.27;;
1358;SDS011;673;48.098;14.422;2023-11-22T18:33:51;11.37;;;5.03;;
1358;SDS011;673;48.098;14.422;2023-11-22T18:36:18;8.67;;;4.47;;
1358;SDS011;673;48.098;14.422;2023-11-22T18:38:46;6.10;;;4.83;;
1358;SDS011;673;48.098;14.422;2023-11-22T18:41:15;6.80;;;4.90;;
1358;SDS011;673;48.098;14.422;2023-11-22T18:43:43;9.60;;;5.87;;
1358;SDS011;673;48.098;14.422;2023-11-22T18:46:10;6.43;;;5.00;;
1358;SDS011;673;48.098;14.422;2023-11-22T18:48:37;5.90;;;3.83;;
1358;SDS011;673;48.098;14.422;2023-11-22T18:51:05;5.73;;;4.73;;
1358;SDS011;673;48.098;14.422;2023-11-22T18:53:32;4.43;;;3.70;;
1358;SDS011;673;48.098;14.422;2023-11-22T18:55:59;4.83;;;4.10;;
1358;SDS011;673;48.098;14.422;2023-11-22T18:58:27;4.77;;;4.33;;
1358;SDS011;673;48.098;14.422;2023-11-22T19:00:54;11.53;;;5.03;;
1358;SDS011;673;48.098;14.422;2023-11-22T19:03:21;7.30;;;3.70;;
1358;SDS011;673;48.098;14.422;2023-11-22T19:05:48;5.53;;;4.63;;
1358;SDS011;673;48.098;14.422;2023-11-22T19:08:19;5.87;;;4.83;;
1358;SDS011;673;48.098;14.422;2023-11-22T19:10:46;5.23;;;3.50;;
1358;SDS011;673;48.098;14.422;2023-11-22T19:13:13;4.83;;;4.33;;
1358;SDS011;673;48.098;14.422;2023-11-22T19:15:43;4.73;;;3.90;;
1358;SDS011;673;48.098;14.422;2023-11-22T19:18:10;4.30;;;2.70;;
1358;SDS011;673;48.098;14.422;2023-11-22T19:20:37;7.77;;;5.20;;
1358;SDS011;673;48.098;14.422;2023-11-22T19:23:04;5.47;;;4.40;;
1358;SDS011;673;48.098;14.422;2023-11-22T19:25:31;6.90;;;4.77;;
1358;SDS011;673;48.098;14.422;2023-11-22T19:28:00;5.20;;;3.67;;
1358;SDS011;673;48.098;14.422;2023-11-22T19:30:30;5.97;;;4.90;;
1358;SDS011;673;48.098;14.422;2023-11-22T19:33:00;5.43;;;4.57;;
1358;SDS011;673;48.098;14.422;2023-11-22T19:35:28;4.90;;;4.37;;
1358;SDS011;673;48.098;14.422;2023-11-22T19:37:56;7.07;;;5.40;;
1358;SDS011;673;48.098;14.422;2023-11-22T19:40:24;7.43;;;5.43;;
1358;SDS011;673;48.098;14.422;2023-11-22T19:42:52;7.93;;;6.30;;
1358;SDS011;673;48.098;14.422;2023-11-22T19:45:19;8.23;;;6.70;;
1358;SDS011;673;48.098;14.422;2023-11-22T19:47:47;5.90;;;5.30;;
1358;SDS011;673;48.098;14.422;2023-11-22T19:50:15;7.63;;;6.13;;
1358;SDS011;673;48.098;14.422;2023-11-22T19:52:45;12.73;;;6.17;;
1358;SDS011;673;48.098;14.422;2023-11-22T19:55:12;6.70;;;5.70;;
1358;SDS011;673;48.098;14.422;2023-11-22T19:57:39;8.20;;;5.77;;
1358;SDS011;673;48.098;14.422;2023-11-22T20:00:07;7.93;;;5.80;;
1358;SDS011;673;48.098;14.422;2023-11-22T20:02:35;9.17;;;6.07;;
1358;SDS011;673;48.098;14.422;2023-11-22T20:05:03;8.60;;;6.57;;
1358;SDS011;673;48.098;14.422;2023-11-22T20:07:31;8.23;;;6.23;;
1358;SDS011;673;48.098;14.422;2023-11-22T20:09:59;7.03;;;5.73;;
1358;SDS011;673;48.098;14.422;2023-11-22T20:12:26;9.00;;;5.50;;
1358;SDS011;673;48.098;14.422;2023-11-22T20:14:53;9.30;;;7.40;;
1358;SDS011;673;48.098;14.422;2023-11-22T20:17:20;8.17;;;5.57;;
1358;SDS011;673;48.098;14.422;2023-11-22T20:19:47;7.83;;;6.00;;
1358;SDS011;673;48.098;14.422;2023-11-22T20:22:14;9.20;;;6.40;;
1358;SDS011;673;48.098;14.422;2023-11-22T20:24:43;12.70;;;6.20;;
1358;SDS011;673;48.098;14.422;2023-11-22T20:27:10;9.40;;;6.13;;
1358;SDS011;673;48.098;14.422;2023-11-22T20:29:37;8.50;;;6.20;;
1358;SDS011;673;48.098;14.422;2023-11-22T20:32:05;7.57;;;6.63;;
1358;SDS011;673;48.098;14.422;2023-11-22T20:34:32;8.30;;;6.00;;
1358;SDS011;673;48.098;14.422;2023-11-22T20:36:59;10.27;;;7.10;;
1358;SDS011;673;48.098;14.422;2023-11-22T20:39:26;8.70;;;5.97;;
1358;SDS011;673;48.098;14.422;2023-11-22T20:41:55;9.90;;;7.13;;
1358;SDS011;673;48.098;14.422;2023-11-22T20:44:22;8.13;;;5.63;;
1358;SDS011;673;48.098;14.422;2023-11-22T20:46:49;10.33;;;6.97;;
1358;SDS011;673;48.098;14.422;2023-11-22T20:49:16;10.43;;;7.50;;
1358;SDS011;673;48.098;14.422;2023-11-22T20:51:44;8.80;;;6.30;;
1358;SDS011;673;48.098;14.422;2023-11-22T20:54:11;8.87;;;6.37;;
1358;SDS011;673;48.098;14.422;2023-11-22T20:56:38;7.77;;;5.60;;
1358;SDS011;673;48.098;14.422;2023-11-22T20:59:06;11.07;;;7.27;;
1358;SDS011;673;48.098;14.422;2023-11-22T21:01:33;8.97;;;7.10;;
1358;SDS011;673;48.098;14.422;2023-11-22T21:04:00;9.77;;;8.30;;
1358;SDS011;673;48.098;14.422;2023-11-22T21:06:30;11.17;;;7.53;;
1358;SDS011;673;48.098;14.422;2023-11-22T21:08:58;8.50;;;7.13;;
1358;SDS011;673;48.098;14.422;2023-11-22T21:11:25;8.97;;;7.23;;
1358;SDS011;673;48.098;14.422;2023-11-22T21:13:52;10.13;;;6.80;;
1358;SDS011;673;48.098;14.422;2023-11-22T21:16:22;9.27;;;6.43;;
1358;SDS011;673;48.098;14.422;2023-11-22T21:18:49;9.17;;;6.27;;
1358;SDS011;673;48.098;14.422;2023-11-22T21:21:16;8.57;;;6.80;;
1358;SDS011;673;48.098;14.422;2023-11-22T21:23:43;10.93;;;7.90;;
1358;SDS011;673;48.098;14.422;2023-11-22T21:26:10;10.00;;;8.00;;
1358;SDS011;673;48.098;14.422;2023-11-22T21:28:38;11.47;;;7.17;;